Groton, Connecticut
Current Conditions -  °F | °C
As of 3:56 AM on Saturday 22 Nov 2014 (Local Time) from KGON Reporting Station
Clear Clear  
Wind Chill: 17°   Ceiling: Unl
Heat Index: 25°   Visibility: 8mi
Dew Point: 12°   Wind: 7mph
Humidity: 58%   Direction: 290°WNW
Pressure: 30.46"   Gusts: NA
Location:  41.35°N, 72.07°W
Report Text: KGON 220856Z AUTO 29006KT 8SM CLR M04/M11 A3046 RMK AO2 SLP313 T10391111 58006
Loading
Personal Weather Stations






























Interactive Weather Map New forecast layout! Learn more

10-Day Weather Forecast

Advertisements
Track Severe Weather on mobile